createdAt,value
2023-03-26T00:01:00.700Z,97936.28
2023-03-26T00:04:07.451Z,97950.44
2023-03-26T00:07:11.202Z,97949.84
2023-03-26T00:10:15.704Z,97958.72
2023-03-26T00:13:19.098Z,97942.38
2023-03-26T00:16:22.666Z,97953.13
2023-03-26T00:19:28.088Z,97948.69
2023-03-26T00:22:31.437Z,97945.22
2023-03-26T00:25:35.253Z,97941.41
2023-03-26T00:28:40.712Z,97942.66
2023-03-26T00:31:46.425Z,97943.75
2023-03-26T00:34:52.272Z,97941.81
2023-03-26T00:37:55.926Z,97940.00
2023-03-26T00:41:06.124Z,97936.50
2023-03-26T00:44:10.709Z,97931.97
2023-03-26T00:47:14.621Z,97927.78
2023-03-26T00:50:19.751Z,97926.00
2023-03-26T00:53:23.494Z,97923.31
2023-03-26T00:56:27.698Z,97923.66
2023-03-26T00:59:32.100Z,97918.88
2023-03-26T01:02:36.060Z,97916.09
2023-03-26T01:05:46.771Z,97924.59
2023-03-26T01:08:52.984Z,97920.03
2023-03-26T01:11:56.790Z,97916.53
2023-03-26T01:15:04.244Z,97915.06
2023-03-26T01:18:10.018Z,97908.94
2023-03-26T01:21:22.722Z,97913.09
2023-03-26T01:24:28.924Z,97911.84
2023-03-26T01:27:41.186Z,97915.97
2023-03-26T01:30:58.854Z,97912.66
2023-03-26T01:34:12.522Z,97904.84
2023-03-26T01:37:25.358Z,97910.53
2023-03-26T01:40:38.805Z,97913.88
2023-03-26T01:43:49.213Z,97908.84
2023-03-26T01:46:54.541Z,97910.69
2023-03-26T01:49:59.571Z,97911.41
2023-03-26T01:53:03.261Z,97902.25
2023-03-26T01:56:17.373Z,97906.84
2023-03-26T01:59:41.486Z,97905.38
2023-03-26T02:02:56.635Z,97903.19
2023-03-26T02:06:10.042Z,97900.75
2023-03-26T02:09:17.567Z,97902.56
2023-03-26T02:12:24.629Z,97892.09
2023-03-26T02:15:28.037Z,97897.72
2023-03-26T02:18:36.560Z,97892.59
2023-03-26T02:21:40.481Z,97901.13
2023-03-26T02:24:46.960Z,97898.16
2023-03-26T02:27:54.176Z,97895.50
2023-03-26T02:31:01.748Z,97903.91
2023-03-26T02:34:06.767Z,97897.53
2023-03-26T02:37:13.035Z,97901.66
2023-03-26T02:40:21.282Z,97895.59
2023-03-26T02:43:27.048Z,97900.56
2023-03-26T02:46:33.142Z,97903.78
2023-03-26T02:49:51.069Z,97899.25
2023-03-26T02:53:07.604Z,97900.56
2023-03-26T02:56:14.648Z,97891.44
2023-03-26T02:59:30.871Z,97892.38
2023-03-26T03:02:54.407Z,97890.69
2023-03-26T03:06:06.949Z,97894.94
2023-03-26T03:09:15.815Z,97887.97
2023-03-26T03:12:21.746Z,97880.53
2023-03-26T03:15:27.477Z,97882.09
2023-03-26T03:18:30.910Z,97884.22
2023-03-26T03:21:34.867Z,97887.94
2023-03-26T03:24:38.864Z,97887.72
2023-03-26T03:27:43.314Z,97887.59
2023-03-26T03:30:53.480Z,97883.38
2023-03-26T03:34:03.880Z,97879.28
2023-03-26T03:37:11.329Z,97887.00
2023-03-26T03:40:24.623Z,97892.88
2023-03-26T03:43:28.687Z,97893.72
2023-03-26T03:46:54.178Z,97886.13
2023-03-26T03:50:00.268Z,97891.16
2023-03-26T03:53:05.833Z,97897.44
2023-03-26T03:56:10.621Z,97895.16
2023-03-26T03:59:32.410Z,97891.53
2023-03-26T04:02:37.879Z,97893.22
2023-03-26T04:05:43.920Z,97891.16
2023-03-26T04:08:47.864Z,97894.31
2023-03-26T04:11:52.481Z,97886.88
2023-03-26T04:15:09.463Z,97890.47
2023-03-26T04:18:14.421Z,97884.34
2023-03-26T04:21:21.331Z,97882.88
2023-03-26T04:24:24.991Z,97893.09
2023-03-26T04:27:43.497Z,97886.22
2023-03-26T04:31:07.632Z,97898.25
2023-03-26T04:34:24.411Z,97883.13
2023-03-26T04:37:48.276Z,97892.59
2023-03-26T04:41:01.592Z,97890.94
2023-03-26T04:44:26.346Z,97876.16
2023-03-26T04:47:37.220Z,97888.16
2023-03-26T04:50:45.105Z,97883.31
2023-03-26T04:53:54.224Z,97883.28
2023-03-26T04:57:26.314Z,97882.22
2023-03-26T05:00:50.550Z,97891.13
2023-03-26T05:03:54.051Z,97888.47
2023-03-26T05:07:00.034Z,97894.38
2023-03-26T05:10:14.904Z,97889.59
2023-03-26T05:13:32.049Z,97898.00
2023-03-26T05:16:44.949Z,97886.56
2023-03-26T05:19:48.957Z,97894.13
2023-03-26T05:22:55.302Z,97897.25
2023-03-26T05:26:08.416Z,97900.25
2023-03-26T05:29:12.840Z,97900.41
2023-03-26T05:32:20.904Z,97896.81
2023-03-26T05:35:27.790Z,97893.47
2023-03-26T05:38:33.412Z,97911.72
2023-03-26T05:41:38.637Z,97912.59
2023-03-26T05:44:42.633Z,97911.25
2023-03-26T05:47:55.989Z,97906.69
2023-03-26T05:51:01.967Z,97906.31
2023-03-26T05:54:08.972Z,97909.78
2023-03-26T05:57:31.383Z,97916.16
2023-03-26T06:00:59.489Z,97915.78
2023-03-26T06:04:13.852Z,97920.78
2023-03-26T06:07:24.008Z,97925.69
2023-03-26T06:10:47.716Z,97915.47
2023-03-26T06:13:51.186Z,97916.41
2023-03-26T06:16:55.194Z,97919.81
2023-03-26T06:19:58.879Z,97915.81
2023-03-26T06:23:11.564Z,97923.63
2023-03-26T06:26:36.954Z,97922.06
2023-03-26T06:30:07.496Z,97924.00
2023-03-26T06:33:31.338Z,97925.78
2023-03-26T06:36:37.347Z,97924.22
2023-03-26T06:39:41.849Z,97925.78
2023-03-26T06:43:06.672Z,97937.19
2023-03-26T06:46:32.309Z,97929.53
2023-03-26T06:49:54.376Z,97931.75
2023-03-26T06:53:25.174Z,97933.91
2023-03-26T06:56:48.626Z,97920.81
2023-03-26T06:59:59.660Z,97934.47
2023-03-26T07:03:22.147Z,97927.13
2023-03-26T07:07:01.336Z,97934.03
2023-03-26T07:10:33.917Z,97932.34
2023-03-26T07:13:48.941Z,97935.50
2023-03-26T07:17:13.952Z,97928.78
2023-03-26T07:20:31.948Z,97923.50
2023-03-26T07:23:36.377Z,97932.63
2023-03-26T07:27:11.243Z,97931.78
2023-03-26T07:30:26.075Z,97926.97
2023-03-26T07:34:05.626Z,97929.84
2023-03-26T07:37:45.292Z,97935.88
2023-03-26T07:41:06.215Z,97935.16
2023-03-26T07:44:49.155Z,97934.91
2023-03-26T07:48:04.674Z,97926.03
2023-03-26T07:51:33.122Z,97936.16
2023-03-26T07:55:13.185Z,97935.91
2023-03-26T07:59:05.482Z,97931.34
2023-03-26T08:02:41.405Z,97925.59
2023-03-26T08:06:11.226Z,97918.38
2023-03-26T08:09:30.077Z,97926.44
2023-03-26T08:13:18.071Z,97923.41
2023-03-26T08:16:30.461Z,97924.50
2023-03-26T08:19:51.629Z,97921.75
2023-03-26T08:23:03.687Z,97924.50
2023-03-26T08:26:16.268Z,97924.38
2023-03-26T08:29:26.889Z,97919.94
2023-03-26T08:32:31.110Z,97913.06
2023-03-26T08:35:35.473Z,97909.56
2023-03-26T08:38:39.165Z,97912.97
2023-03-26T08:42:37.067Z,97907.56
2023-03-26T08:46:02.008Z,97906.25
2023-03-26T08:49:31.933Z,97904.03
2023-03-26T08:53:04.309Z,97908.16
2023-03-26T08:56:22.966Z,97902.41
2023-03-26T09:00:13.767Z,97899.63
2023-03-26T09:03:55.136Z,97895.34
2023-03-26T09:07:32.367Z,97904.53
2023-03-26T09:10:52.883Z,97905.94
2023-03-26T09:14:43.344Z,97894.75
2023-03-26T09:18:18.450Z,97911.00
2023-03-26T09:21:54.160Z,97918.72
2023-03-26T09:25:41.726Z,97907.63
2023-03-26T09:29:19.004Z,97909.94
2023-03-26T09:32:53.848Z,97903.53
2023-03-26T09:36:32.351Z,97906.66
2023-03-26T09:39:40.208Z,97911.81
2023-03-26T09:42:55.059Z,97912.25
2023-03-26T09:46:10.686Z,97907.44
2023-03-26T09:49:40.189Z,97896.53
2023-03-26T09:53:08.309Z,97895.06
2023-03-26T09:56:27.147Z,97890.91
2023-03-26T09:59:56.201Z,97889.06
2023-03-26T10:03:20.160Z,97895.41
2023-03-26T10:06:46.062Z,97886.94
2023-03-26T10:09:58.187Z,97887.94
2023-03-26T10:13:15.025Z,97868.72
2023-03-26T10:16:27.575Z,97876.88
2023-03-26T10:19:52.596Z,97868.22
2023-03-26T10:23:08.770Z,97867.25
2023-03-26T10:27:08.797Z,97872.88
2023-03-26T10:30:24.074Z,97868.72
2023-03-26T10:33:38.146Z,97867.91
2023-03-26T10:36:51.977Z,97862.03
2023-03-26T10:40:14.262Z,97854.06
2023-03-26T10:43:39.805Z,97854.31
2023-03-26T10:47:01.306Z,97856.75
2023-03-26T10:50:22.967Z,97850.78
2023-03-26T10:53:40.325Z,97855.50
2023-03-26T10:56:47.637Z,97849.34
2023-03-26T10:59:53.373Z,97854.09
2023-03-26T11:03:18.890Z,97850.16
2023-03-26T11:06:43.459Z,97849.59
2023-03-26T11:09:54.926Z,97848.25
2023-03-26T11:13:09.291Z,97846.00
2023-03-26T11:16:21.095Z,97846.81
2023-03-26T11:19:32.707Z,97847.47
2023-03-26T11:22:49.753Z,97858.13
2023-03-26T11:26:10.333Z,97837.78
2023-03-26T11:29:48.557Z,97826.63
2023-03-26T11:32:58.163Z,97835.13
2023-03-26T11:36:06.692Z,97830.59
2023-03-26T11:39:15.324Z,97833.22
2023-03-26T11:42:23.160Z,97816.81
2023-03-26T11:45:30.729Z,97861.19
2023-03-26T11:48:41.991Z,97859.09
2023-03-26T11:51:48.874Z,97857.91
2023-03-26T11:54:52.470Z,97860.34
2023-03-26T11:58:00.527Z,97853.03
2023-03-26T12:01:16.595Z,97850.22
2023-03-26T12:04:31.350Z,97853.63
2023-03-26T12:07:37.469Z,97842.78
2023-03-26T12:10:44.122Z,97834.75
2023-03-26T12:13:54.777Z,97834.19
2023-03-26T12:17:03.740Z,97829.09
2023-03-26T12:20:34.898Z,97828.06
2023-03-26T12:23:45.138Z,97822.97
2023-03-26T12:26:50.321Z,97814.94
2023-03-26T12:29:55.158Z,97811.22
2023-03-26T12:33:03.899Z,97806.88
2023-03-26T12:36:23.461Z,97802.13
2023-03-26T12:40:08.988Z,97804.91
2023-03-26T12:44:54.606Z,97784.78
2023-03-26T12:47:55.673Z,97785.81
2023-03-26T12:49:53.269Z,97785.16
2023-03-26T12:53:20.200Z,97779.31
2023-03-26T12:56:37.095Z,97778.00
2023-03-26T13:00:00.336Z,97776.75
2023-03-26T13:03:24.276Z,97763.91
2023-03-26T13:06:59.298Z,97777.34
2023-03-26T13:10:34.603Z,97772.88
2023-03-26T13:14:14.841Z,97770.66
2023-03-26T13:17:27.407Z,97765.34
2023-03-26T13:20:44.408Z,97764.22
2023-03-26T13:23:55.466Z,97769.94
2023-03-26T13:27:11.350Z,97753.84
2023-03-26T13:30:38.538Z,97754.81
2023-03-26T13:33:51.658Z,97763.22
2023-03-26T13:37:07.837Z,97759.88
2023-03-26T13:40:26.481Z,97751.47
2023-03-26T13:43:39.015Z,97752.06
2023-03-26T13:46:47.463Z,97754.13
2023-03-26T13:49:56.533Z,97748.50
2023-03-26T13:53:04.299Z,97752.28
2023-03-26T13:56:14.593Z,97749.47
2023-03-26T13:59:25.856Z,97740.97
2023-03-26T14:02:38.637Z,97733.84
2023-03-26T14:05:48.686Z,97744.84
2023-03-26T14:08:59.494Z,97744.28
2023-03-26T14:12:20.969Z,97738.41
2023-03-26T14:15:29.626Z,97736.09
2023-03-26T14:18:44.475Z,97736.78
2023-03-26T14:22:04.041Z,97738.75
2023-03-26T14:25:27.731Z,97740.03
2023-03-26T14:29:06.554Z,97737.78
2023-03-26T14:32:30.936Z,97743.53
2023-03-26T14:35:41.622Z,97737.34
2023-03-26T14:39:07.981Z,97737.59
2023-03-26T14:42:20.567Z,97730.19
2023-03-26T14:45:56.638Z,97723.72
2023-03-26T14:49:15.335Z,97721.03
2023-03-26T14:52:31.630Z,97709.59
2023-03-26T14:56:04.198Z,97711.56
2023-03-26T14:59:32.650Z,97715.78
2023-03-26T15:03:27.606Z,97706.25
2023-03-26T15:07:03.959Z,97699.38
2023-03-26T15:10:41.845Z,97703.88
2023-03-26T15:13:57.243Z,97701.47
2023-03-26T15:17:42.179Z,97694.09
2023-03-26T15:21:23.523Z,97701.53
2023-03-26T15:24:53.713Z,97700.28
2023-03-26T15:28:52.561Z,97704.50
2023-03-26T15:32:31.418Z,97700.69
2023-03-26T15:35:57.768Z,97695.94
2023-03-26T15:39:58.651Z,97699.25
2023-03-26T15:43:11.841Z,97701.59
2023-03-26T15:46:32.417Z,97707.66
2023-03-26T15:49:42.975Z,97690.75
2023-03-26T15:52:54.004Z,97692.72
2023-03-26T15:56:09.172Z,97687.13
2023-03-26T15:59:28.288Z,97680.56
2023-03-26T16:02:42.243Z,97681.41
2023-03-26T16:06:08.942Z,97677.91
2023-03-26T16:09:29.065Z,97674.66
2023-03-26T16:12:36.944Z,97675.78
2023-03-26T16:15:42.828Z,97678.63
2023-03-26T16:18:49.242Z,97668.41
2023-03-26T16:21:59.473Z,97662.09
2023-03-26T16:25:27.791Z,97666.84
2023-03-26T16:28:35.687Z,97666.84
2023-03-26T16:32:00.760Z,97663.22
2023-03-26T16:35:37.133Z,97669.94
2023-03-26T16:38:52.067Z,97664.72
2023-03-26T16:42:06.149Z,97666.41
2023-03-26T16:45:28.197Z,97673.66
2023-03-26T16:48:39.812Z,97675.44
2023-03-26T16:52:03.357Z,97672.75
2023-03-26T16:55:17.631Z,97674.19
2023-03-26T16:58:31.841Z,97681.78
2023-03-26T17:01:43.078Z,97683.28
2023-03-26T17:04:50.709Z,97669.38
2023-03-26T17:08:02.955Z,97678.97
2023-03-26T17:11:20.387Z,97672.66
2023-03-26T17:14:41.663Z,97675.09
2023-03-26T17:18:21.135Z,97675.75
2023-03-26T17:21:46.029Z,97674.63
2023-03-26T17:24:59.738Z,97667.38
2023-03-26T17:28:43.506Z,97660.50
2023-03-26T17:31:53.533Z,97662.09
2023-03-26T17:35:02.256Z,97667.72
2023-03-26T17:38:10.940Z,97663.63
2023-03-26T17:42:02.565Z,97664.72
2023-03-26T17:45:14.238Z,97666.41
2023-03-26T17:48:23.284Z,97667.16
2023-03-26T17:51:41.110Z,97667.28
2023-03-26T17:54:47.640Z,97671.13
2023-03-26T17:57:57.806Z,97661.44
2023-03-26T18:01:09.255Z,97664.19
2023-03-26T18:04:19.962Z,97657.28
2023-03-26T18:08:03.641Z,97651.50
2023-03-26T18:11:45.508Z,97647.59
2023-03-26T18:15:11.339Z,97650.16
2023-03-26T18:18:20.012Z,97644.06
2023-03-26T18:21:33.940Z,97639.22
2023-03-26T18:24:40.124Z,97647.63
2023-03-26T18:27:44.206Z,97649.78
2023-03-26T18:30:50.857Z,97653.63
2023-03-26T18:33:59.250Z,97648.75
2023-03-26T18:37:16.669Z,97647.56
2023-03-26T18:40:22.219Z,97648.88
2023-03-26T18:43:34.352Z,97653.91
2023-03-26T18:46:39.915Z,97640.63
2023-03-26T18:49:45.352Z,97646.00
2023-03-26T18:52:49.136Z,97638.69
2023-03-26T18:55:53.932Z,97645.78
2023-03-26T18:59:03.007Z,97644.94
2023-03-26T19:02:16.454Z,97671.75
2023-03-26T19:05:21.629Z,97672.69
2023-03-26T19:08:26.390Z,97676.00
2023-03-26T19:11:33.615Z,97673.28
2023-03-26T19:14:55.194Z,97670.81
2023-03-26T19:18:07.396Z,97662.72
2023-03-26T19:21:11.258Z,97654.38
2023-03-26T19:24:16.502Z,97659.03
2023-03-26T19:27:20.495Z,97651.13
2023-03-26T19:30:30.478Z,97649.69
2023-03-26T19:33:37.852Z,97647.28
2023-03-26T19:36:58.114Z,97633.09
2023-03-26T19:40:07.594Z,97637.19
2023-03-26T19:43:13.446Z,97627.81
2023-03-26T19:46:16.999Z,97622.91
2023-03-26T19:49:29.647Z,97621.94
2023-03-26T19:52:39.018Z,97614.38
2023-03-26T19:55:43.184Z,97609.44
2023-03-26T19:58:46.642Z,97599.72
2023-03-26T20:01:50.173Z,97600.06
2023-03-26T20:04:55.384Z,97600.44
2023-03-26T20:08:03.260Z,97601.38
2023-03-26T20:11:20.618Z,97604.41
2023-03-26T20:14:26.241Z,97602.34
2023-03-26T20:17:31.049Z,97598.97
2023-03-26T20:20:36.772Z,97595.63
2023-03-26T20:23:40.452Z,97593.56
2023-03-26T20:26:44.270Z,97596.59
2023-03-26T20:29:47.813Z,97590.47
2023-03-26T20:32:51.511Z,97575.81
2023-03-26T20:36:33.329Z,97585.91
2023-03-26T20:39:39.618Z,97575.94
2023-03-26T20:42:45.524Z,97564.16
2023-03-26T20:45:49.873Z,97561.75
2023-03-26T20:48:54.912Z,97560.06
2023-03-26T20:52:01.252Z,97560.06
2023-03-26T20:55:05.033Z,97554.31
2023-03-26T20:58:10.554Z,97555.03
2023-03-26T21:01:14.995Z,97547.72
2023-03-26T21:04:19.364Z,97554.81
2023-03-26T21:07:24.197Z,97540.50
2023-03-26T21:10:30.603Z,97540.03
2023-03-26T21:13:39.027Z,97526.06
2023-03-26T21:16:43.112Z,97528.84
2023-03-26T21:19:47.725Z,97524.75
2023-03-26T21:23:00.211Z,97528.22
2023-03-26T21:26:12.205Z,97524.84
2023-03-26T21:29:16.088Z,97529.28
2023-03-26T21:32:20.530Z,97520.88
2023-03-26T21:35:24.674Z,97533.63
2023-03-26T21:38:32.654Z,97532.44
2023-03-26T21:41:44.452Z,97527.22
2023-03-26T21:44:48.673Z,97523.44
2023-03-26T21:47:53.180Z,97530.03
2023-03-26T21:51:02.563Z,97532.94
2023-03-26T21:54:22.301Z,97530.28
2023-03-26T21:57:48.558Z,97527.66
2023-03-26T22:01:06.451Z,97522.38
2023-03-26T22:04:15.736Z,97523.34
2023-03-26T22:07:22.026Z,97521.66
2023-03-26T22:10:27.156Z,97507.72
2023-03-26T22:13:31.122Z,97519.03
2023-03-26T22:16:34.596Z,97524.88
2023-03-26T22:19:38.076Z,97514.41
2023-03-26T22:22:48.849Z,97524.41
2023-03-26T22:25:53.733Z,97524.75
2023-03-26T22:28:57.471Z,97531.50
2023-03-26T22:32:00.965Z,97523.34
2023-03-26T22:35:05.054Z,97520.47
2023-03-26T22:38:09.908Z,97529.25
2023-03-26T22:41:15.609Z,97530.44
2023-03-26T22:44:20.121Z,97535.84
2023-03-26T22:47:23.970Z,97519.28
2023-03-26T22:50:28.069Z,97524.41
2023-03-26T22:53:35.166Z,97526.00
2023-03-26T22:56:40.150Z,97524.91
2023-03-26T22:59:43.887Z,97520.34
2023-03-26T23:02:48.208Z,97513.25
2023-03-26T23:05:58.580Z,97525.00
2023-03-26T23:09:02.147Z,97524.31
2023-03-26T23:12:07.831Z,97526.72
2023-03-26T23:15:12.325Z,97522.63
2023-03-26T23:18:15.718Z,97511.56
2023-03-26T23:21:20.959Z,97524.06
2023-03-26T23:24:26.649Z,97522.88
2023-03-26T23:27:32.998Z,97536.66
2023-03-26T23:30:36.524Z,97525.53
2023-03-26T23:33:46.545Z,97522.50
2023-03-26T23:36:50.825Z,97514.47
2023-03-26T23:40:00.601Z,97523.22
2023-03-26T23:43:05.721Z,97521.69
2023-03-26T23:46:10.515Z,97535.50
2023-03-26T23:49:15.191Z,97531.03
2023-03-26T23:52:18.633Z,97526.00
2023-03-26T23:55:22.231Z,97529.69
2023-03-26T23:58:30.220Z,97527.91
